sensor_id;sensor_type;location;lat;lon;timestamp;P1;durP1;ratioP1;P2;durP2;ratioP2
41436;SDS011;27178;49.460;10.850;2023-08-07T00:00:06;0.10;;;0.10;;
41436;SDS011;27178;49.460;10.850;2023-08-07T00:02:36;0.28;;;0.28;;
41436;SDS011;27178;49.460;10.850;2023-08-07T00:05:06;0.30;;;0.30;;
41436;SDS011;27178;49.460;10.850;2023-08-07T00:07:36;0.10;;;0.10;;
41436;SDS011;27178;49.460;10.850;2023-08-07T00:10:05;1.35;;;0.20;;
41436;SDS011;27178;49.460;10.850;2023-08-07T00:12:34;0.20;;;0.20;;
41436;SDS011;27178;49.460;10.850;2023-08-07T00:15:03;0.40;;;0.30;;
41436;SDS011;27178;49.460;10.850;2023-08-07T00:17:32;0.20;;;0.15;;
41436;SDS011;27178;49.460;10.850;2023-08-07T00:20:00;1.08;;;0.40;;
41436;SDS011;27178;49.460;10.850;2023-08-07T00:22:30;0.52;;;0.30;;
41436;SDS011;27178;49.460;10.850;2023-08-07T00:24:59;0.20;;;0.20;;
41436;SDS011;27178;49.460;10.850;2023-08-07T00:27:27;2.67;;;0.55;;
41436;SDS011;27178;49.460;10.850;2023-08-07T00:29:56;0.63;;;0.30;;
41436;SDS011;27178;49.460;10.850;2023-08-07T00:32:24;0.32;;;0.30;;
41436;SDS011;27178;49.460;10.850;2023-08-07T00:34:53;0.32;;;0.28;;
41436;SDS011;27178;49.460;10.850;2023-08-07T00:37:22;2.42;;;0.60;;
41436;SDS011;27178;49.460;10.850;2023-08-07T00:39:53;0.25;;;0.25;;
41436;SDS011;27178;49.460;10.850;2023-08-07T00:42:21;0.35;;;0.25;;
41436;SDS011;27178;49.460;10.850;2023-08-07T00:44:50;0.28;;;0.28;;
41436;SDS011;27178;49.460;10.850;2023-08-07T00:47:18;0.30;;;0.30;;
41436;SDS011;27178;49.460;10.850;2023-08-07T00:49:47;0.52;;;0.38;;
41436;SDS011;27178;49.460;10.850;2023-08-07T00:52:16;2.20;;;0.40;;
41436;SDS011;27178;49.460;10.850;2023-08-07T00:54:46;0.40;;;0.40;;
41436;SDS011;27178;49.460;10.850;2023-08-07T00:57:15;0.40;;;0.20;;
41436;SDS011;27178;49.460;10.850;2023-08-07T00:59:49;0.47;;;0.40;;
41436;SDS011;27178;49.460;10.850;2023-08-07T01:02:18;0.52;;;0.30;;
41436;SDS011;27178;49.460;10.850;2023-08-07T01:04:47;0.30;;;0.20;;
41436;SDS011;27178;49.460;10.850;2023-08-07T01:07:15;0.77;;;0.38;;
41436;SDS011;27178;49.460;10.850;2023-08-07T01:09:43;0.95;;;0.50;;
41436;SDS011;27178;49.460;10.850;2023-08-07T01:12:13;0.35;;;0.22;;
41436;SDS011;27178;49.460;10.850;2023-08-07T01:14:49;0.20;;;0.20;;
41436;SDS011;27178;49.460;10.850;2023-08-07T01:17:20;0.90;;;0.32;;
41436;SDS011;27178;49.460;10.850;2023-08-07T01:19:51;0.32;;;0.22;;
41436;SDS011;27178;49.460;10.850;2023-08-07T01:22:21;0.38;;;0.30;;
41436;SDS011;27178;49.460;10.850;2023-08-07T01:24:50;0.65;;;0.40;;
41436;SDS011;27178;49.460;10.850;2023-08-07T01:27:21;0.73;;;0.30;;
41436;SDS011;27178;49.460;10.850;2023-08-07T01:29:59;1.35;;;0.47;;
41436;SDS011;27178;49.460;10.850;2023-08-07T01:32:34;1.05;;;0.43;;
41436;SDS011;27178;49.460;10.850;2023-08-07T01:35:11;1.13;;;0.60;;
41436;SDS011;27178;49.460;10.850;2023-08-07T01:37:43;0.30;;;0.30;;
41436;SDS011;27178;49.460;10.850;2023-08-07T01:40:14;0.90;;;0.60;;
41436;SDS011;27178;49.460;10.850;2023-08-07T01:42:44;0.40;;;0.40;;
41436;SDS011;27178;49.460;10.850;2023-08-07T01:45:13;0.70;;;0.57;;
41436;SDS011;27178;49.460;10.850;2023-08-07T01:47:49;0.50;;;0.40;;
41436;SDS011;27178;49.460;10.850;2023-08-07T01:50:19;1.08;;;0.47;;
41436;SDS011;27178;49.460;10.850;2023-08-07T01:52:49;0.73;;;0.60;;
41436;SDS011;27178;49.460;10.850;2023-08-07T01:55:18;1.85;;;0.43;;
41436;SDS011;27178;49.460;10.850;2023-08-07T01:57:47;1.10;;;0.60;;
41436;SDS011;27178;49.460;10.850;2023-08-07T02:00:16;0.40;;;0.40;;
41436;SDS011;27178;49.460;10.850;2023-08-07T02:02:44;0.50;;;0.50;;
41436;SDS011;27178;49.460;10.850;2023-08-07T02:05:14;1.27;;;0.80;;
41436;SDS011;27178;49.460;10.850;2023-08-07T02:07:43;0.57;;;0.45;;
41436;SDS011;27178;49.460;10.850;2023-08-07T02:10:14;1.52;;;0.40;;
41436;SDS011;27178;49.460;10.850;2023-08-07T02:12:42;0.55;;;0.55;;
41436;SDS011;27178;49.460;10.850;2023-08-07T02:15:11;1.17;;;0.50;;
41436;SDS011;27178;49.460;10.850;2023-08-07T02:17:40;0.43;;;0.43;;
41436;SDS011;27178;49.460;10.850;2023-08-07T02:20:09;0.98;;;0.52;;
41436;SDS011;27178;49.460;10.850;2023-08-07T02:22:38;1.23;;;0.88;;
41436;SDS011;27178;49.460;10.850;2023-08-07T02:25:07;0.82;;;0.60;;
41436;SDS011;27178;49.460;10.850;2023-08-07T02:27:37;0.75;;;0.70;;
41436;SDS011;27178;49.460;10.850;2023-08-07T02:30:06;0.75;;;0.65;;
41436;SDS011;27178;49.460;10.850;2023-08-07T02:32:35;2.17;;;0.93;;
41436;SDS011;27178;49.460;10.850;2023-08-07T02:35:04;0.43;;;0.43;;
41436;SDS011;27178;49.460;10.850;2023-08-07T02:37:32;2.97;;;1.05;;
41436;SDS011;27178;49.460;10.850;2023-08-07T02:40:01;1.20;;;0.63;;
41436;SDS011;27178;49.460;10.850;2023-08-07T02:42:31;0.95;;;0.88;;
41436;SDS011;27178;49.460;10.850;2023-08-07T02:45:00;1.38;;;0.70;;
41436;SDS011;27178;49.460;10.850;2023-08-07T02:47:29;0.43;;;0.40;;
41436;SDS011;27178;49.460;10.850;2023-08-07T02:49:57;0.88;;;0.65;;
41436;SDS011;27178;49.460;10.850;2023-08-07T02:52:26;3.58;;;1.08;;
41436;SDS011;27178;49.460;10.850;2023-08-07T02:54:54;0.80;;;0.80;;
41436;SDS011;27178;49.460;10.850;2023-08-07T02:57:24;0.57;;;0.57;;
41436;SDS011;27178;49.460;10.850;2023-08-07T02:59:52;0.73;;;0.73;;
41436;SDS011;27178;49.460;10.850;2023-08-07T03:02:22;1.42;;;0.77;;
41436;SDS011;27178;49.460;10.850;2023-08-07T03:04:50;3.50;;;0.90;;
41436;SDS011;27178;49.460;10.850;2023-08-07T03:07:19;1.40;;;1.08;;
41436;SDS011;27178;49.460;10.850;2023-08-07T03:09:47;0.93;;;0.88;;
41436;SDS011;27178;49.460;10.850;2023-08-07T03:12:16;1.17;;;0.80;;
41436;SDS011;27178;49.460;10.850;2023-08-07T03:14:44;1.85;;;1.05;;
41436;SDS011;27178;49.460;10.850;2023-08-07T03:17:12;1.00;;;0.90;;
41436;SDS011;27178;49.460;10.850;2023-08-07T03:19:43;0.90;;;0.80;;
41436;SDS011;27178;49.460;10.850;2023-08-07T03:22:11;1.92;;;0.95;;
41436;SDS011;27178;49.460;10.850;2023-08-07T03:24:40;2.40;;;1.02;;
41436;SDS011;27178;49.460;10.850;2023-08-07T03:27:08;1.27;;;1.00;;
41436;SDS011;27178;49.460;10.850;2023-08-07T03:29:37;1.83;;;1.08;;
41436;SDS011;27178;49.460;10.850;2023-08-07T03:32:06;1.75;;;1.05;;
41436;SDS011;27178;49.460;10.850;2023-08-07T03:34:36;1.83;;;1.30;;
41436;SDS011;27178;49.460;10.850;2023-08-07T03:37:06;2.38;;;1.23;;
41436;SDS011;27178;49.460;10.850;2023-08-07T03:39:34;0.80;;;0.80;;
41436;SDS011;27178;49.460;10.850;2023-08-07T03:42:03;2.33;;;1.42;;
41436;SDS011;27178;49.460;10.850;2023-08-07T03:44:31;0.82;;;0.82;;
41436;SDS011;27178;49.460;10.850;2023-08-07T03:47:01;2.25;;;1.15;;
41436;SDS011;27178;49.460;10.850;2023-08-07T03:49:29;1.40;;;1.15;;
41436;SDS011;27178;49.460;10.850;2023-08-07T03:51:57;2.67;;;1.40;;
41436;SDS011;27178;49.460;10.850;2023-08-07T03:54:28;1.70;;;1.40;;
41436;SDS011;27178;49.460;10.850;2023-08-07T03:56:56;2.45;;;1.23;;
41436;SDS011;27178;49.460;10.850;2023-08-07T03:59:25;1.70;;;1.08;;
41436;SDS011;27178;49.460;10.850;2023-08-07T04:01:53;2.58;;;1.67;;
41436;SDS011;27178;49.460;10.850;2023-08-07T04:04:22;2.28;;;0.95;;
41436;SDS011;27178;49.460;10.850;2023-08-07T04:06:51;2.47;;;1.30;;
41436;SDS011;27178;49.460;10.850;2023-08-07T04:09:19;2.10;;;1.30;;
41436;SDS011;27178;49.460;10.850;2023-08-07T04:11:49;2.05;;;1.58;;
41436;SDS011;27178;49.460;10.850;2023-08-07T04:14:17;1.73;;;1.50;;
41436;SDS011;27178;49.460;10.850;2023-08-07T04:16:46;2.00;;;1.60;;
41436;SDS011;27178;49.460;10.850;2023-08-07T04:19:14;3.13;;;1.67;;
41436;SDS011;27178;49.460;10.850;2023-08-07T04:21:53;1.83;;;1.38;;
41436;SDS011;27178;49.460;10.850;2023-08-07T04:24:40;1.33;;;1.23;;
41436;SDS011;27178;49.460;10.850;2023-08-07T04:27:10;1.48;;;0.90;;
41436;SDS011;27178;49.460;10.850;2023-08-07T04:29:38;1.75;;;1.40;;
41436;SDS011;27178;49.460;10.850;2023-08-07T04:32:06;3.30;;;1.80;;
41436;SDS011;27178;49.460;10.850;2023-08-07T04:34:36;3.10;;;1.60;;
41436;SDS011;27178;49.460;10.850;2023-08-07T04:37:05;2.30;;;1.42;;
41436;SDS011;27178;49.460;10.850;2023-08-07T04:39:33;2.38;;;1.52;;
41436;SDS011;27178;49.460;10.850;2023-08-07T04:42:03;3.42;;;1.63;;
41436;SDS011;27178;49.460;10.850;2023-08-07T04:44:33;2.08;;;1.48;;
41436;SDS011;27178;49.460;10.850;2023-08-07T04:47:02;1.55;;;1.40;;
41436;SDS011;27178;49.460;10.850;2023-08-07T04:49:30;1.60;;;1.50;;
41436;SDS011;27178;49.460;10.850;2023-08-07T04:51:58;2.63;;;1.70;;
41436;SDS011;27178;49.460;10.850;2023-08-07T04:54:46;2.83;;;1.55;;
41436;SDS011;27178;49.460;10.850;2023-08-07T04:57:14;1.23;;;1.13;;
41436;SDS011;27178;49.460;10.850;2023-08-07T04:59:44;4.05;;;1.40;;
41436;SDS011;27178;49.460;10.850;2023-08-07T05:02:13;1.50;;;1.38;;
41436;SDS011;27178;49.460;10.850;2023-08-07T05:04:41;6.47;;;1.73;;
41436;SDS011;27178;49.460;10.850;2023-08-07T05:07:09;2.67;;;1.90;;
41436;SDS011;27178;49.460;10.850;2023-08-07T05:09:39;2.30;;;1.70;;
41436;SDS011;27178;49.460;10.850;2023-08-07T05:12:07;3.85;;;1.95;;
41436;SDS011;27178;49.460;10.850;2023-08-07T05:14:36;2.58;;;1.58;;
41436;SDS011;27178;49.460;10.850;2023-08-07T05:17:06;3.20;;;1.80;;
41436;SDS011;27178;49.460;10.850;2023-08-07T05:19:34;3.58;;;1.85;;
41436;SDS011;27178;49.460;10.850;2023-08-07T05:22:03;3.45;;;1.60;;
41436;SDS011;27178;49.460;10.850;2023-08-07T05:24:31;2.58;;;1.52;;
41436;SDS011;27178;49.460;10.850;2023-08-07T05:27:06;2.80;;;1.63;;
41436;SDS011;27178;49.460;10.850;2023-08-07T05:29:36;1.80;;;1.27;;
41436;SDS011;27178;49.460;10.850;2023-08-07T05:32:12;2.22;;;1.60;;
41436;SDS011;27178;49.460;10.850;2023-08-07T05:34:41;3.70;;;1.60;;
41436;SDS011;27178;49.460;10.850;2023-08-07T05:37:11;1.65;;;1.08;;
41436;SDS011;27178;49.460;10.850;2023-08-07T05:39:40;3.20;;;1.83;;
41436;SDS011;27178;49.460;10.850;2023-08-07T05:42:08;2.35;;;1.63;;
41436;SDS011;27178;49.460;10.850;2023-08-07T05:44:38;1.35;;;1.17;;
41436;SDS011;27178;49.460;10.850;2023-08-07T05:47:07;2.17;;;1.52;;
41436;SDS011;27178;49.460;10.850;2023-08-07T05:49:37;1.77;;;1.23;;
41436;SDS011;27178;49.460;10.850;2023-08-07T05:52:06;2.78;;;1.23;;
41436;SDS011;27178;49.460;10.850;2023-08-07T05:54:35;1.98;;;1.40;;
41436;SDS011;27178;49.460;10.850;2023-08-07T05:57:04;2.85;;;1.30;;
41436;SDS011;27178;49.460;10.850;2023-08-07T05:59:32;1.27;;;1.17;;
41436;SDS011;27178;49.460;10.850;2023-08-07T06:02:03;1.92;;;1.40;;
41436;SDS011;27178;49.460;10.850;2023-08-07T06:04:32;2.63;;;1.52;;
41436;SDS011;27178;49.460;10.850;2023-08-07T06:07:02;2.70;;;1.23;;
41436;SDS011;27178;49.460;10.850;2023-08-07T06:09:31;3.42;;;1.35;;
41436;SDS011;27178;49.460;10.850;2023-08-07T06:11:59;1.95;;;1.38;;
41436;SDS011;27178;49.460;10.850;2023-08-07T06:14:27;1.60;;;1.50;;
41436;SDS011;27178;49.460;10.850;2023-08-07T06:16:56;1.75;;;1.60;;
41436;SDS011;27178;49.460;10.850;2023-08-07T06:19:37;2.33;;;1.23;;
41436;SDS011;27178;49.460;10.850;2023-08-07T06:22:06;1.80;;;1.50;;
41436;SDS011;27178;49.460;10.850;2023-08-07T06:24:34;1.45;;;1.30;;
41436;SDS011;27178;49.460;10.850;2023-08-07T06:27:03;1.58;;;1.45;;
41436;SDS011;27178;49.460;10.850;2023-08-07T06:29:33;3.53;;;1.98;;
41436;SDS011;27178;49.460;10.850;2023-08-07T06:32:01;2.15;;;1.40;;
41436;SDS011;27178;49.460;10.850;2023-08-07T06:34:30;1.75;;;1.33;;
41436;SDS011;27178;49.460;10.850;2023-08-07T06:36:58;2.20;;;1.52;;
41436;SDS011;27178;49.460;10.850;2023-08-07T06:39:27;1.60;;;1.45;;
41436;SDS011;27178;49.460;10.850;2023-08-07T06:41:56;1.67;;;1.30;;
41436;SDS011;27178;49.460;10.850;2023-08-07T06:44:26;2.10;;;1.63;;
41436;SDS011;27178;49.460;10.850;2023-08-07T06:46:55;2.50;;;1.60;;
41436;SDS011;27178;49.460;10.850;2023-08-07T06:49:23;3.78;;;2.60;;
41436;SDS011;27178;49.460;10.850;2023-08-07T06:51:51;3.65;;;2.47;;
41436;SDS011;27178;49.460;10.850;2023-08-07T06:54:20;3.40;;;1.75;;
41436;SDS011;27178;49.460;10.850;2023-08-07T06:56:58;1.77;;;1.55;;
41436;SDS011;27178;49.460;10.850;2023-08-07T06:59:27;2.13;;;1.83;;
41436;SDS011;27178;49.460;10.850;2023-08-07T07:01:55;2.47;;;1.35;;
41436;SDS011;27178;49.460;10.850;2023-08-07T07:04:24;2.60;;;1.67;;
41436;SDS011;27178;49.460;10.850;2023-08-07T07:06:52;4.38;;;1.58;;
41436;SDS011;27178;49.460;10.850;2023-08-07T07:09:21;2.15;;;1.42;;
41436;SDS011;27178;49.460;10.850;2023-08-07T07:11:50;2.10;;;1.52;;
41436;SDS011;27178;49.460;10.850;2023-08-07T07:14:19;3.38;;;1.80;;
41436;SDS011;27178;49.460;10.850;2023-08-07T07:16:48;2.15;;;1.73;;
41436;SDS011;27178;49.460;10.850;2023-08-07T07:19:16;2.40;;;1.55;;
41436;SDS011;27178;49.460;10.850;2023-08-07T07:21:45;2.60;;;1.42;;
41436;SDS011;27178;49.460;10.850;2023-08-07T07:24:13;2.65;;;1.63;;
41436;SDS011;27178;49.460;10.850;2023-08-07T07:26:42;1.85;;;1.65;;
41436;SDS011;27178;49.460;10.850;2023-08-07T07:29:10;1.90;;;1.40;;
41436;SDS011;27178;49.460;10.850;2023-08-07T07:31:40;2.90;;;1.70;;
41436;SDS011;27178;49.460;10.850;2023-08-07T07:34:08;3.72;;;2.20;;
41436;SDS011;27178;49.460;10.850;2023-08-07T07:36:37;3.10;;;1.75;;
41436;SDS011;27178;49.460;10.850;2023-08-07T07:39:05;2.80;;;1.58;;
41436;SDS011;27178;49.460;10.850;2023-08-07T07:41:34;1.65;;;1.55;;
41436;SDS011;27178;49.460;10.850;2023-08-07T07:44:02;1.88;;;1.60;;
41436;SDS011;27178;49.460;10.850;2023-08-07T07:46:31;3.55;;;1.75;;
41436;SDS011;27178;49.460;10.850;2023-08-07T07:49:01;1.80;;;1.70;;
41436;SDS011;27178;49.460;10.850;2023-08-07T07:51:31;4.85;;;2.10;;
41436;SDS011;27178;49.460;10.850;2023-08-07T07:54:02;3.05;;;1.50;;
41436;SDS011;27178;49.460;10.850;2023-08-07T07:56:40;1.80;;;1.35;;
41436;SDS011;27178;49.460;10.850;2023-08-07T07:59:09;3.75;;;1.70;;
41436;SDS011;27178;49.460;10.850;2023-08-07T08:01:39;1.92;;;1.45;;
41436;SDS011;27178;49.460;10.850;2023-08-07T08:04:09;2.92;;;1.67;;
41436;SDS011;27178;49.460;10.850;2023-08-07T08:06:39;4.38;;;1.80;;
41436;SDS011;27178;49.460;10.850;2023-08-07T08:09:07;2.20;;;1.55;;
41436;SDS011;27178;49.460;10.850;2023-08-07T08:11:36;2.30;;;1.75;;
41436;SDS011;27178;49.460;10.850;2023-08-07T08:14:05;2.25;;;1.60;;
41436;SDS011;27178;49.460;10.850;2023-08-07T08:16:33;2.08;;;1.52;;
41436;SDS011;27178;49.460;10.850;2023-08-07T08:19:02;2.10;;;1.50;;
41436;SDS011;27178;49.460;10.850;2023-08-07T08:21:32;2.70;;;1.67;;
41436;SDS011;27178;49.460;10.850;2023-08-07T08:24:01;1.50;;;1.40;;
41436;SDS011;27178;49.460;10.850;2023-08-07T08:26:29;5.28;;;1.90;;
41436;SDS011;27178;49.460;10.850;2023-08-07T08:28:58;2.63;;;1.70;;
41436;SDS011;27178;49.460;10.850;2023-08-07T08:31:26;3.38;;;2.00;;
41436;SDS011;27178;49.460;10.850;2023-08-07T08:33:55;2.45;;;1.70;;
41436;SDS011;27178;49.460;10.850;2023-08-07T08:36:24;3.05;;;2.10;;
41436;SDS011;27178;49.460;10.850;2023-08-07T08:38:54;2.03;;;1.70;;
41436;SDS011;27178;49.460;10.850;2023-08-07T08:41:23;1.98;;;1.60;;
41436;SDS011;27178;49.460;10.850;2023-08-07T08:43:51;2.08;;;1.42;;
41436;SDS011;27178;49.460;10.850;2023-08-07T08:46:22;2.85;;;1.65;;
41436;SDS011;27178;49.460;10.850;2023-08-07T08:48:56;1.88;;;1.70;;
41436;SDS011;27178;49.460;10.850;2023-08-07T08:51:25;2.47;;;1.55;;
41436;SDS011;27178;49.460;10.850;2023-08-07T08:53:55;1.65;;;1.33;;
41436;SDS011;27178;49.460;10.850;2023-08-07T08:56:24;1.90;;;1.42;;
41436;SDS011;27178;49.460;10.850;2023-08-07T08:58:52;1.38;;;1.27;;
41436;SDS011;27178;49.460;10.850;2023-08-07T09:01:21;1.50;;;1.40;;
41436;SDS011;27178;49.460;10.850;2023-08-07T09:03:53;1.80;;;1.52;;
41436;SDS011;27178;49.460;10.850;2023-08-07T09:06:23;1.50;;;1.40;;
41436;SDS011;27178;49.460;10.850;2023-08-07T09:08:55;1.52;;;1.42;;
41436;SDS011;27178;49.460;10.850;2023-08-07T09:11:25;1.65;;;1.25;;
41436;SDS011;27178;49.460;10.850;2023-08-07T09:13:55;2.20;;;1.38;;
41436;SDS011;27178;49.460;10.850;2023-08-07T09:16:25;3.15;;;1.13;;
41436;SDS011;27178;49.460;10.850;2023-08-07T09:18:55;3.22;;;1.38;;
41436;SDS011;27178;49.460;10.850;2023-08-07T09:21:23;4.63;;;1.50;;
41436;SDS011;27178;49.460;10.850;2023-08-07T09:23:52;1.85;;;1.50;;
41436;SDS011;27178;49.460;10.850;2023-08-07T09:26:22;1.50;;;1.33;;
41436;SDS011;27178;49.460;10.850;2023-08-07T09:28:51;2.30;;;1.25;;
41436;SDS011;27178;49.460;10.850;2023-08-07T09:31:21;1.25;;;1.15;;
41436;SDS011;27178;49.460;10.850;2023-08-07T09:33:50;2.45;;;1.30;;
41436;SDS011;27178;49.460;10.850;2023-08-07T09:36:19;2.22;;;1.52;;
41436;SDS011;27178;49.460;10.850;2023-08-07T09:38:50;1.77;;;1.40;;
41436;SDS011;27178;49.460;10.850;2023-08-07T09:41:18;2.10;;;1.60;;
41436;SDS011;27178;49.460;10.850;2023-08-07T09:43:48;1.83;;;1.40;;
41436;SDS011;27178;49.460;10.850;2023-08-07T09:46:17;1.88;;;1.25;;
41436;SDS011;27178;49.460;10.850;2023-08-07T09:48:47;1.38;;;1.27;;
41436;SDS011;27178;49.460;10.850;2023-08-07T09:51:15;2.05;;;1.33;;
41436;SDS011;27178;49.460;10.850;2023-08-07T09:53:44;1.65;;;1.35;;
41436;SDS011;27178;49.460;10.850;2023-08-07T09:56:14;2.03;;;1.10;;
41436;SDS011;27178;49.460;10.850;2023-08-07T09:58:49;1.73;;;1.30;;
41436;SDS011;27178;49.460;10.850;2023-08-07T10:01:21;1.40;;;1.30;;
41436;SDS011;27178;49.460;10.850;2023-08-07T10:03:50;1.77;;;1.20;;
41436;SDS011;27178;49.460;10.850;2023-08-07T10:06:19;2.85;;;1.20;;
41436;SDS011;27178;49.460;10.850;2023-08-07T10:08:48;1.27;;;1.17;;
41436;SDS011;27178;49.460;10.850;2023-08-07T10:11:16;1.35;;;1.25;;
41436;SDS011;27178;49.460;10.850;2023-08-07T10:13:46;2.05;;;1.50;;
41436;SDS011;27178;49.460;10.850;2023-08-07T10:16:16;1.50;;;1.40;;
41436;SDS011;27178;49.460;10.850;2023-08-07T10:18:45;2.35;;;1.30;;
41436;SDS011;27178;49.460;10.850;2023-08-07T10:21:13;1.40;;;1.20;;
41436;SDS011;27178;49.460;10.850;2023-08-07T10:23:42;1.58;;;1.30;;
41436;SDS011;27178;49.460;10.850;2023-08-07T10:26:11;2.55;;;1.20;;
41436;SDS011;27178;49.460;10.850;2023-08-07T10:28:40;2.38;;;1.60;;
41436;SDS011;27178;49.460;10.850;2023-08-07T10:31:10;1.40;;;1.30;;
41436;SDS011;27178;49.460;10.850;2023-08-07T10:33:42;2.45;;;1.48;;
41436;SDS011;27178;49.460;10.850;2023-08-07T10:36:11;2.08;;;1.40;;
41436;SDS011;27178;49.460;10.850;2023-08-07T10:38:40;1.60;;;1.50;;
41436;SDS011;27178;49.460;10.850;2023-08-07T10:41:09;2.05;;;1.25;;
41436;SDS011;27178;49.460;10.850;2023-08-07T10:43:40;1.30;;;1.20;;
41436;SDS011;27178;49.460;10.850;2023-08-07T10:46:09;2.28;;;1.83;;
41436;SDS011;27178;49.460;10.850;2023-08-07T10:48:39;3.20;;;1.40;;
41436;SDS011;27178;49.460;10.850;2023-08-07T10:51:13;3.20;;;1.70;;
41436;SDS011;27178;49.460;10.850;2023-08-07T10:53:43;2.38;;;1.50;;
41436;SDS011;27178;49.460;10.850;2023-08-07T10:56:15;2.78;;;1.50;;
41436;SDS011;27178;49.460;10.850;2023-08-07T10:58:49;3.70;;;1.40;;
41436;SDS011;27178;49.460;10.850;2023-08-07T11:01:19;1.85;;;1.50;;
41436;SDS011;27178;49.460;10.850;2023-08-07T11:03:53;1.40;;;1.30;;
41436;SDS011;27178;49.460;10.850;2023-08-07T11:06:25;1.73;;;1.63;;
41436;SDS011;27178;49.460;10.850;2023-08-07T11:08:55;1.58;;;1.40;;
41436;SDS011;27178;49.460;10.850;2023-08-07T11:11:24;3.53;;;1.70;;
41436;SDS011;27178;49.460;10.850;2023-08-07T11:13:54;3.08;;;2.15;;
41436;SDS011;27178;49.460;10.850;2023-08-07T11:16:22;1.70;;;1.60;;
41436;SDS011;27178;49.460;10.850;2023-08-07T11:18:52;2.05;;;1.48;;
41436;SDS011;27178;49.460;10.850;2023-08-07T11:21:21;2.03;;;1.50;;
41436;SDS011;27178;49.460;10.850;2023-08-07T11:23:54;2.80;;;1.40;;
41436;SDS011;27178;49.460;10.850;2023-08-07T11:26:22;4.05;;;1.58;;
41436;SDS011;27178;49.460;10.850;2023-08-07T11:28:52;1.73;;;1.38;;
41436;SDS011;27178;49.460;10.850;2023-08-07T11:31:20;1.33;;;1.20;;
41436;SDS011;27178;49.460;10.850;2023-08-07T11:33:53;1.70;;;1.40;;
41436;SDS011;27178;49.460;10.850;2023-08-07T11:36:24;1.50;;;1.40;;
41436;SDS011;27178;49.460;10.850;2023-08-07T11:38:52;1.60;;;1.30;;
41436;SDS011;27178;49.460;10.850;2023-08-07T11:41:20;1.23;;;1.13;;
41436;SDS011;27178;49.460;10.850;2023-08-07T11:43:49;2.80;;;1.30;;
41436;SDS011;27178;49.460;10.850;2023-08-07T11:46:17;2.03;;;1.48;;
41436;SDS011;27178;49.460;10.850;2023-08-07T11:48:45;1.33;;;1.23;;
41436;SDS011;27178;49.460;10.850;2023-08-07T11:51:15;1.48;;;1.33;;
41436;SDS011;27178;49.460;10.850;2023-08-07T11:53:44;1.80;;;1.30;;
41436;SDS011;27178;49.460;10.850;2023-08-07T11:56:13;1.67;;;1.33;;
41436;SDS011;27178;49.460;10.850;2023-08-07T11:58:42;2.25;;;1.77;;
41436;SDS011;27178;49.460;10.850;2023-08-07T12:01:13;2.47;;;1.13;;
41436;SDS011;27178;49.460;10.850;2023-08-07T12:03:51;1.70;;;1.27;;
41436;SDS011;27178;49.460;10.850;2023-08-07T12:06:23;4.00;;;1.40;;
41436;SDS011;27178;49.460;10.850;2023-08-07T12:08:53;1.58;;;1.20;;
41436;SDS011;27178;49.460;10.850;2023-08-07T12:11:23;2.40;;;1.40;;
41436;SDS011;27178;49.460;10.850;2023-08-07T12:13:52;1.50;;;1.17;;
41436;SDS011;27178;49.460;10.850;2023-08-07T12:16:21;2.70;;;1.30;;
41436;SDS011;27178;49.460;10.850;2023-08-07T12:18:50;0.90;;;0.90;;
41436;SDS011;27178;49.460;10.850;2023-08-07T12:21:20;1.33;;;1.20;;
41436;SDS011;27178;49.460;10.850;2023-08-07T12:23:54;2.38;;;1.30;;
41436;SDS011;27178;49.460;10.850;2023-08-07T12:26:23;2.60;;;1.60;;
41436;SDS011;27178;49.460;10.850;2023-08-07T12:28:52;1.35;;;1.25;;
41436;SDS011;27178;49.460;10.850;2023-08-07T12:31:21;1.55;;;1.30;;
41436;SDS011;27178;49.460;10.850;2023-08-07T12:33:49;1.48;;;0.90;;
41436;SDS011;27178;49.460;10.850;2023-08-07T12:36:19;1.30;;;1.20;;
41436;SDS011;27178;49.460;10.850;2023-08-07T12:38:47;1.92;;;1.30;;
41436;SDS011;27178;49.460;10.850;2023-08-07T12:41:17;2.25;;;1.48;;
41436;SDS011;27178;49.460;10.850;2023-08-07T12:43:49;1.75;;;1.48;;
41436;SDS011;27178;49.460;10.850;2023-08-07T12:46:18;1.38;;;1.27;;
41436;SDS011;27178;49.460;10.850;2023-08-07T12:48:49;1.35;;;1.25;;
41436;SDS011;27178;49.460;10.850;2023-08-07T12:51:17;1.85;;;1.55;;
41436;SDS011;27178;49.460;10.850;2023-08-07T12:53:46;1.27;;;0.98;;
41436;SDS011;27178;49.460;10.850;2023-08-07T12:56:14;1.33;;;1.17;;
41436;SDS011;27178;49.460;10.850;2023-08-07T12:58:44;1.30;;;1.20;;
41436;SDS011;27178;49.460;10.850;2023-08-07T13:01:13;1.27;;;1.17;;
41436;SDS011;27178;49.460;10.850;2023-08-07T13:03:41;1.48;;;0.93;;
41436;SDS011;27178;49.460;10.850;2023-08-07T13:06:10;1.48;;;1.10;;
41436;SDS011;27178;49.460;10.850;2023-08-07T13:08:39;1.58;;;1.35;;
41436;SDS011;27178;49.460;10.850;2023-08-07T13:11:07;1.40;;;1.30;;
41436;SDS011;27178;49.460;10.850;2023-08-07T13:13:36;1.00;;;0.90;;
41436;SDS011;27178;49.460;10.850;2023-08-07T13:16:07;2.45;;;1.17;;
41436;SDS011;27178;49.460;10.850;2023-08-07T13:18:35;3.28;;;1.05;;
41436;SDS011;27178;49.460;10.850;2023-08-07T13:21:04;1.83;;;1.20;;
41436;SDS011;27178;49.460;10.850;2023-08-07T13:23:32;1.15;;;1.05;;
41436;SDS011;27178;49.460;10.850;2023-08-07T13:26:01;1.30;;;1.20;;
41436;SDS011;27178;49.460;10.850;2023-08-07T13:28:28;1.63;;;1.02;;
41436;SDS011;27178;49.460;10.850;2023-08-07T13:30:57;2.75;;;1.40;;
41436;SDS011;27178;49.460;10.850;2023-08-07T13:33:27;1.60;;;1.05;;
41436;SDS011;27178;49.460;10.850;2023-08-07T13:35:56;1.13;;;1.00;;
41436;SDS011;27178;49.460;10.850;2023-08-07T13:38:24;1.33;;;1.15;;
41436;SDS011;27178;49.460;10.850;2023-08-07T13:40:53;2.25;;;1.10;;
41436;SDS011;27178;49.460;10.850;2023-08-07T13:43:21;2.90;;;1.00;;
41436;SDS011;27178;49.460;10.850;2023-08-07T13:45:50;1.35;;;1.15;;
41436;SDS011;27178;49.460;10.850;2023-08-07T13:48:18;1.63;;;1.20;;
41436;SDS011;27178;49.460;10.850;2023-08-07T13:50:49;1.30;;;1.20;;
41436;SDS011;27178;49.460;10.850;2023-08-07T13:53:18;1.50;;;1.08;;
41436;SDS011;27178;49.460;10.850;2023-08-07T13:55:46;1.50;;;1.30;;
41436;SDS011;27178;49.460;10.850;2023-08-07T13:58:15;1.60;;;1.38;;
41436;SDS011;27178;49.460;10.850;2023-08-07T14:00:43;1.20;;;1.10;;
41436;SDS011;27178;49.460;10.850;2023-08-07T14:03:12;1.30;;;1.20;;
41436;SDS011;27178;49.460;10.850;2023-08-07T14:05:41;1.98;;;1.60;;
41436;SDS011;27178;49.460;10.850;2023-08-07T14:08:11;1.20;;;1.10;;
41436;SDS011;27178;49.460;10.850;2023-08-07T14:10:39;1.50;;;1.40;;
41436;SDS011;27178;49.460;10.850;2023-08-07T14:13:08;1.40;;;1.30;;
41436;SDS011;27178;49.460;10.850;2023-08-07T14:15:38;1.67;;;1.58;;
41436;SDS011;27178;49.460;10.850;2023-08-07T14:18:07;2.60;;;1.30;;
41436;SDS011;27178;49.460;10.850;2023-08-07T14:20:37;2.72;;;1.80;;
41436;SDS011;27178;49.460;10.850;2023-08-07T14:23:26;1.60;;;1.50;;
41436;SDS011;27178;49.460;10.850;2023-08-07T14:25:58;1.42;;;1.33;;
41436;SDS011;27178;49.460;10.850;2023-08-07T14:28:35;1.60;;;1.38;;
41436;SDS011;27178;49.460;10.850;2023-08-07T14:31:05;1.40;;;1.30;;
41436;SDS011;27178;49.460;10.850;2023-08-07T14:33:35;2.17;;;1.52;;
41436;SDS011;27178;49.460;10.850;2023-08-07T14:36:04;2.45;;;1.40;;
41436;SDS011;27178;49.460;10.850;2023-08-07T14:38:34;2.75;;;1.60;;
41436;SDS011;27178;49.460;10.850;2023-08-07T14:41:03;2.65;;;1.98;;
41436;SDS011;27178;49.460;10.850;2023-08-07T14:43:31;1.58;;;1.48;;
41436;SDS011;27178;49.460;10.850;2023-08-07T14:45:59;2.72;;;1.75;;